Cerritos, New Mexico
Current Conditions -  °F | °C
As of 5:53 PM on Friday 24 Oct 2014 (Local Time) from KCQC Reporting Station
Clear Clear  
Wind Chill: 69°   Ceiling: Unl
Heat Index: 69°   Visibility: 10mi
Dew Point: 25°   Wind: 14mph
Humidity: 19%   Direction: 300°WNW
Pressure: 30.3"   Gusts: NA
Location:  35.2436°N, 105.367°W
Report Text: KCQC 242353Z AUTO 30012KT 10SM CLR 21/M04 A3030 RMK AO2 SLP187 T02061039 10244 20206 50001
Loading
Personal Weather Stations






























Interactive Weather Map
Tropical Storm Tracking
New forecast layout! Learn more

10-Day Weather Forecast

Advertisements
Track Severe Weather on mobile